Time;durP1;ratioP1;P1;durP2;ratioP2;P2;SDS_P1;SDS_P2;PMS_P1;PMS_P2;Temp;Humidity;BMP_temperature;BMP_pressure;BME280_temperature;BME280_humidity;BME280_pressure;Samples;Min_cycle;Max_cycle;Signal;HPM_P1;HPM_P2
2022/05/02 00:02:22;;;;;;;;;;;19.10;99.90;;;;;;5114708;28;20011;-35
2022/05/02 00:04:47;;;;;;;;;;;19.00;99.90;;;;;;5114666;28;19916;-36
2022/05/02 00:07:13;;;;;;;;;;;19.10;99.90;;;;;;5114619;28;20018;-35
2022/05/02 00:09:38;;;;;;;;;;;19.10;99.90;;;;;;5114733;28;20277;-36
2022/05/02 00:12:04;;;;;;;;;;;19.10;99.90;;;;;;5114650;28;20361;-35
2022/05/02 00:14:30;;;;;;;;;;;19.00;99.90;;;;;;5114226;28;19915;-35
2022/05/02 00:16:55;;;;;;;;;;;19.00;99.90;;;;;;5114328;28;20433;-35
2022/05/02 00:19:21;;;;;;;;;;;19.00;99.90;;;;;;5114518;28;20006;-35
2022/05/02 00:21:46;;;;;;;;;;;19.00;99.90;;;;;;5114585;28;20006;-35
2022/05/02 00:24:12;;;;;;;;;;;19.00;99.90;;;;;;5114212;28;19911;-35
2022/05/02 00:26:38;;;;;;;;;;;19.00;99.90;;;;;;5114505;28;19912;-35
2022/05/02 00:29:03;;;;;;;;;;;19.00;99.90;;;;;;5114409;28;19908;-35
2022/05/02 00:31:29;;;;;;;;;;;19.00;99.90;;;;;;5113936;28;19915;-36
2022/05/02 00:33:54;;;;;;;;;;;19.00;99.90;;;;;;5114219;28;20278;-35
2022/05/02 00:36:20;;;;;;;;;;;19.00;99.90;;;;;;5114099;28;20358;-35
2022/05/02 00:38:46;;;;;;;;;;;18.90;99.90;;;;;;5114091;28;19912;-35
2022/05/02 00:41:12;;;;;;;;;;;18.80;99.90;;;;;;5114341;28;19907;-36
2022/05/02 00:43:39;;;;;;;;;;;18.90;99.90;;;;;;5114058;28;19986;-35
2022/05/02 00:46:15;;;;;;;;;;;18.90;99.90;;;;;;5113994;28;20379;-35
2022/05/02 00:48:41;;;;;;;;;;;18.90;99.90;;;;;;5114368;28;19956;-36
2022/05/02 00:51:06;;;;;;;;;;;18.90;99.90;;;;;;5113937;28;19907;-35
2022/05/02 00:53:32;;;;;;;;;;;18.90;99.90;;;;;;5113869;28;20421;-35
2022/05/02 00:55:57;;;;;;;;;;;18.90;99.90;;;;;;5114179;28;19908;-35
2022/05/02 00:58:23;;;;;;;;;;;18.90;99.90;;;;;;5114263;28;19914;-35
2022/05/02 01:00:48;;;;;;;;;;;18.90;99.90;;;;;;5114165;28;20273;-35
2022/05/02 01:03:14;;;;;;;;;;;18.80;99.90;;;;;;5115935;28;19908;-36
2022/05/02 01:08:26;;;;;;;;;;;18.80;99.90;;;;;;5117832;28;20003;-35
2022/05/02 01:10:53;;;;;;;;;;;18.80;99.90;;;;;;5117654;28;19907;-35
2022/05/02 01:13:33;;;;;;;;;;;18.80;99.90;;;;;;5117670;28;19947;-35
2022/05/02 01:15:59;;;;;;;;;;;18.80;99.90;;;;;;5117858;28;19915;-35
2022/05/02 01:18:24;;;;;;;;;;;18.80;99.90;;;;;;5117440;28;19908;-35
2022/05/02 01:20:49;;;;;;;;;;;18.80;99.90;;;;;;5117496;28;19908;-36
2022/05/02 01:23:15;;;;;;;;;;;18.70;99.90;;;;;;5117629;28;19908;-36
2022/05/02 01:25:40;;;;;;;;;;;18.70;99.90;;;;;;5117189;28;20353;-36
2022/05/02 01:28:07;;;;;;;;;;;18.70;99.90;;;;;;5117683;28;19968;-35
2022/05/02 01:30:32;;;;;;;;;;;18.60;99.90;;;;;;5117200;28;19955;-35
2022/05/02 01:32:58;;;;;;;;;;;18.60;99.90;;;;;;5117480;28;19920;-35
2022/05/02 01:35:23;;;;;;;;;;;18.60;99.90;;;;;;5117096;28;19908;-35
2022/05/02 01:37:49;;;;;;;;;;;18.60;99.90;;;;;;5117429;28;19907;-35
2022/05/02 01:40:14;;;;;;;;;;;18.60;99.90;;;;;;5117055;28;20439;-35
2022/05/02 01:42:40;;;;;;;;;;;18.60;99.90;;;;;;5117358;28;20358;-35
2022/05/02 01:45:06;;;;;;;;;;;18.50;99.90;;;;;;5117419;28;19916;-35
2022/05/02 01:47:31;;;;;;;;;;;18.50;99.90;;;;;;5117181;28;19957;-35
2022/05/02 01:49:58;;;;;;;;;;;18.50;99.90;;;;;;5116724;28;19914;-35
2022/05/02 01:52:23;;;;;;;;;;;18.50;99.90;;;;;;5116738;28;19998;-35
2022/05/02 01:54:49;;;;;;;;;;;18.60;99.90;;;;;;5116764;28;19951;-36
2022/05/02 01:57:14;;;;;;;;;;;18.50;99.90;;;;;;5116675;28;19954;-36
2022/05/02 01:59:40;;;;;;;;;;;18.50;99.90;;;;;;5117044;28;19946;-35
2022/05/02 02:02:05;;;;;;;;;;;18.50;99.90;;;;;;5098921;28;20429;-35
2022/05/02 02:07:14;;;;;;;;;;;18.50;99.90;;;;;;5116663;28;20270;-36
2022/05/02 02:09:40;;;;;;;;;;;18.40;99.90;;;;;;5116494;28;19908;-35
2022/05/02 02:12:06;;;;;;;;;;;18.40;99.90;;;;;;5116388;28;19916;-35
2022/05/02 02:14:31;;;;;;;;;;;18.40;99.90;;;;;;5115625;28;19952;-35
2022/05/02 02:16:57;;;;;;;;;;;18.50;99.90;;;;;;5116608;28;19908;-35
2022/05/02 02:19:22;;;;;;;;;;;18.40;99.90;;;;;;5116326;28;19908;-35
2022/05/02 02:21:48;;;;;;;;;;;18.40;99.90;;;;;;5116291;28;19951;-36
2022/05/02 02:24:13;;;;;;;;;;;18.40;99.90;;;;;;5116350;28;19912;-35
2022/05/02 02:26:39;;;;;;;;;;;18.40;99.90;;;;;;5116474;28;19912;-35
2022/05/02 02:29:05;;;;;;;;;;;18.40;99.90;;;;;;5116346;28;20239;-35
2022/05/02 02:31:30;;;;;;;;;;;18.40;99.90;;;;;;5097762;28;19999;-36
2022/05/02 02:33:56;;;;;;;;;;;18.40;99.90;;;;;;5116115;28;19912;-36
2022/05/02 02:36:21;;;;;;;;;;;18.40;99.90;;;;;;5116382;28;20303;-35
2022/05/02 02:38:47;;;;;;;;;;;18.40;99.90;;;;;;5116116;28;19911;-35
2022/05/02 02:41:12;;;;;;;;;;;18.40;99.90;;;;;;5116166;28;19907;-35
2022/05/02 02:43:38;;;;;;;;;;;18.40;99.90;;;;;;5115845;28;19977;-35
2022/05/02 02:46:03;;;;;;;;;;;18.40;99.90;;;;;;5115588;28;19919;-35
2022/05/02 02:48:29;;;;;;;;;;;18.40;99.90;;;;;;5116269;28;19912;-35
2022/05/02 02:50:54;;;;;;;;;;;18.40;99.90;;;;;;5115678;28;19908;-35
2022/05/02 02:53:20;;;;;;;;;;;18.40;99.90;;;;;;5115793;28;20326;-35
2022/05/02 02:55:45;;;;;;;;;;;18.40;99.90;;;;;;5115890;28;19960;-36
2022/05/02 02:58:11;;;;;;;;;;;18.40;99.90;;;;;;5115505;28;19908;-35
2022/05/02 03:00:36;;;;;;;;;;;18.40;99.90;;;;;;5115789;28;19908;-35
2022/05/02 03:03:03;;;;;;;;;;;18.40;99.90;;;;;;5115757;28;19908;-35
2022/05/02 03:08:12;;;;;;;;;;;18.30;99.90;;;;;;5115467;28;19984;-36
2022/05/02 03:10:38;;;;;;;;;;;18.40;99.90;;;;;;5115569;28;19912;-36
2022/05/02 03:13:04;;;;;;;;;;;18.30;99.90;;;;;;5115093;28;19907;-36
2022/05/02 03:15:30;;;;;;;;;;;18.40;99.90;;;;;;5115399;28;20304;-36
2022/05/02 03:17:55;;;;;;;;;;;18.40;99.90;;;;;;5097161;28;19907;-36
2022/05/02 03:20:21;;;;;;;;;;;18.30;99.90;;;;;;5115371;28;19908;-36
2022/05/02 03:22:46;;;;;;;;;;;18.30;99.90;;;;;;5114997;28;19912;-36
2022/05/02 03:25:12;;;;;;;;;;;18.30;99.90;;;;;;5114705;28;20010;-36
2022/05/02 03:27:38;;;;;;;;;;;18.30;99.90;;;;;;5115126;28;20258;-36
2022/05/02 03:30:04;;;;;;;;;;;18.30;99.90;;;;;;5115169;28;19957;-36
2022/05/02 03:32:30;;;;;;;;;;;18.30;99.90;;;;;;5114798;28;19920;-36
2022/05/02 03:34:55;;;;;;;;;;;18.30;99.90;;;;;;5114933;28;19995;-36
2022/05/02 03:37:22;;;;;;;;;;;18.30;99.90;;;;;;5115048;28;20286;-36
2022/05/02 03:39:47;;;;;;;;;;;18.30;99.90;;;;;;5114908;28;19908;-36
2022/05/02 03:42:13;;;;;;;;;;;18.30;99.90;;;;;;5115000;28;19908;-36
2022/05/02 03:44:38;;;;;;;;;;;18.30;99.90;;;;;;5114595;28;19915;-36
2022/05/02 03:47:04;;;;;;;;;;;18.30;99.90;;;;;;5114931;28;20423;-36
2022/05/02 03:49:29;;;;;;;;;;;18.30;99.90;;;;;;5114908;28;20000;-36
2022/05/02 03:51:55;;;;;;;;;;;18.30;99.90;;;;;;5114586;28;19908;-36
2022/05/02 03:54:20;;;;;;;;;;;18.30;99.90;;;;;;5114715;28;19943;-36
2022/05/02 03:56:46;;;;;;;;;;;18.20;99.90;;;;;;5114497;28;19916;-36
2022/05/02 03:59:11;;;;;;;;;;;18.20;99.90;;;;;;5114618;28;19953;-36
2022/05/02 04:01:39;;;;;;;;;;;18.20;99.90;;;;;;5114427;28;19995;-36
2022/05/02 04:04:05;;;;;;;;;;;18.20;99.90;;;;;;5130215;27;20044;-36
2022/05/02 04:06:31;;;;;;;;;;;18.20;99.90;;;;;;5114227;28;20390;-36
2022/05/02 04:08:56;;;;;;;;;;;18.20;99.90;;;;;;5114160;28;19915;-36
2022/05/02 04:11:22;;;;;;;;;;;18.20;99.90;;;;;;5114489;28;19984;-36
2022/05/02 04:13:47;;;;;;;;;;;18.20;99.90;;;;;;5114107;28;20424;-36
2022/05/02 04:16:13;;;;;;;;;;;18.20;99.90;;;;;;5114550;28;19968;-36
2022/05/02 04:18:38;;;;;;;;;;;18.20;99.90;;;;;;5114485;28;19911;-36
2022/05/02 04:21:04;;;;;;;;;;;18.10;99.90;;;;;;5114450;28;19908;-36
2022/05/02 04:23:29;;;;;;;;;;;18.10;99.90;;;;;;5114383;28;19999;-36
2022/05/02 04:25:55;;;;;;;;;;;18.20;99.90;;;;;;5114375;28;19912;-36
2022/05/02 04:28:20;;;;;;;;;;;18.10;99.90;;;;;;5114403;28;19919;-36
2022/05/02 04:30:46;;;;;;;;;;;18.10;99.90;;;;;;5114114;28;20353;-36
2022/05/02 04:33:12;;;;;;;;;;;18.10;99.90;;;;;;5114235;28;19920;-36
2022/05/02 04:35:38;;;;;;;;;;;18.10;99.90;;;;;;5114229;28;19908;-36
2022/05/02 04:38:03;;;;;;;;;;;18.10;99.90;;;;;;5097922;28;20270;-36
2022/05/02 04:40:29;;;;;;;;;;;18.10;99.90;;;;;;5118038;28;20002;-36
2022/05/02 04:42:54;;;;;;;;;;;18.20;99.90;;;;;;5118243;28;19911;-36
2022/05/02 04:45:20;;;;;;;;;;;18.20;99.90;;;;;;5117984;28;19912;-36
2022/05/02 04:47:45;;;;;;;;;;;18.10;99.90;;;;;;5118216;28;19947;-36
2022/05/02 04:50:11;;;;;;;;;;;18.10;99.90;;;;;;5118244;28;19955;-36
2022/05/02 04:52:36;;;;;;;;;;;18.10;99.90;;;;;;5118095;28;20007;-36
2022/05/02 04:55:02;;;;;;;;;;;18.10;99.90;;;;;;5117938;28;19943;-36
2022/05/02 04:57:28;;;;;;;;;;;18.10;99.90;;;;;;5117643;28;20387;-36
2022/05/02 04:59:53;;;;;;;;;;;18.10;99.90;;;;;;5118429;28;20290;-36
2022/05/02 05:02:19;;;;;;;;;;;18.10;99.90;;;;;;5117466;28;20259;-36
2022/05/02 05:04:44;;;;;;;;;;;18.20;99.90;;;;;;5117571;28;19912;-36
2022/05/02 05:07:10;;;;;;;;;;;18.20;99.90;;;;;;5117319;28;19954;-36
2022/05/02 05:09:35;;;;;;;;;;;18.10;99.90;;;;;;5117730;28;19907;-36
2022/05/02 05:12:04;;;;;;;;;;;18.10;99.90;;;;;;5117763;28;19915;-36
2022/05/02 05:17:29;;;;;;;;;;;18.10;99.90;;;;;;5117189;28;20049;-36
2022/05/02 05:20:00;;;;;;;;;;;18.10;99.90;;;;;;5116974;28;20343;-36
2022/05/02 05:22:44;;;;;;;;;;;18.10;99.90;;;;;;5116988;28;20386;-36
2022/05/02 05:25:28;;;;;;;;;;;18.10;99.90;;;;;;5117119;28;19973;-34
2022/05/02 05:28:19;;;;;;;;;;;18.10;99.90;;;;;;5116944;28;20442;-37
2022/05/02 05:30:47;;;;;;;;;;;18.10;99.90;;;;;;5114633;28;19918;-37
2022/05/02 05:33:13;;;;;;;;;;;18.10;99.90;;;;;;5116568;28;19924;-37
2022/05/02 05:35:54;;;;;;;;;;;18.10;99.90;;;;;;5116365;28;19915;-37
2022/05/02 05:38:39;;;;;;;;;;;18.10;99.90;;;;;;5116714;28;20383;-37
2022/05/02 05:41:27;;;;;;;;;;;18.10;99.90;;;;;;5116987;28;19907;-36
2022/05/02 05:44:04;;;;;;;;;;;18.10;99.90;;;;;;5098116;28;20419;-36
2022/05/02 05:46:56;;;;;;;;;;;18.10;99.90;;;;;;5116451;28;19916;-37
2022/05/02 05:49:37;;;;;;;;;;;18.20;99.90;;;;;;5113051;28;20385;-34
2022/05/02 05:52:08;;;;;;;;;;;18.10;99.90;;;;;;5116576;28;20355;-37
2022/05/02 05:54:43;;;;;;;;;;;18.20;99.90;;;;;;5098035;28;19908;-37
2022/05/02 05:57:17;;;;;;;;;;;18.10;99.90;;;;;;5116669;28;19987;-37
2022/05/02 05:59:54;;;;;;;;;;;18.10;99.90;;;;;;5116665;28;19908;-37
2022/05/02 06:02:22;;;;;;;;;;;18.10;99.90;;;;;;5116311;28;19982;-37
2022/05/02 06:04:49;;;;;;;;;;;18.10;99.90;;;;;;5116129;28;19912;-37
2022/05/02 06:07:18;;;;;;;;;;;18.10;99.90;;;;;;5116181;28;20336;-37
2022/05/02 06:09:44;;;;;;;;;;;18.10;99.90;;;;;;5116481;28;19908;-37
2022/05/02 06:12:16;;;;;;;;;;;18.10;99.90;;;;;;5116228;28;19907;-37
2022/05/02 06:20:15;;;;;;;;;;;18.10;99.90;;;;;;5115954;28;19957;-35
2022/05/02 06:22:41;;;;;;;;;;;18.10;99.90;;;;;;5116008;28;19911;-36
2022/05/02 06:25:06;;;;;;;;;;;18.00;99.90;;;;;;5115707;28;19938;-35
2022/05/02 06:27:33;;;;;;;;;;;18.10;99.90;;;;;;5116063;28;20362;-36
2022/05/02 06:29:59;;;;;;;;;;;18.10;99.90;;;;;;5115971;28;19908;-36
2022/05/02 06:32:25;;;;;;;;;;;18.10;99.90;;;;;;5115659;28;19926;-36
2022/05/02 06:34:51;;;;;;;;;;;18.10;99.90;;;;;;5115944;28;19914;-36
2022/05/02 06:37:39;;;;;;;;;;;18.00;99.90;;;;;;5115475;28;20265;-36
2022/05/02 06:40:08;;;;;;;;;;;18.00;99.90;;;;;;5108875;28;19996;-36
2022/05/02 06:42:37;;;;;;;;;;;18.00;99.90;;;;;;5115735;28;19908;-36
2022/05/02 06:45:02;;;;;;;;;;;18.00;99.90;;;;;;5097252;28;19911;-36
2022/05/02 06:47:34;;;;;;;;;;;18.00;99.90;;;;;;5115622;28;19917;-36
2022/05/02 06:50:02;;;;;;;;;;;18.00;99.90;;;;;;5115189;28;19908;-36
2022/05/02 06:52:47;;;;;;;;;;;18.00;99.90;;;;;;5114858;28;19965;-36
2022/05/02 06:55:22;;;;;;;;;;;18.00;99.90;;;;;;5093094;28;19907;-36
2022/05/02 06:57:53;;;;;;;;;;;18.00;99.90;;;;;;5114822;28;19912;-37
2022/05/02 07:00:20;;;;;;;;;;;18.00;99.90;;;;;;5114763;28;19914;-36
2022/05/02 07:03:04;;;;;;;;;;;18.00;99.90;;;;;;5115254;28;20362;-36
2022/05/02 07:05:37;;;;;;;;;;;18.00;99.90;;;;;;5115077;28;19972;-36
2022/05/02 07:08:04;;;;;;;;;;;18.00;99.90;;;;;;5115430;28;19912;-36
2022/05/02 07:10:32;;;;;;;;;;;18.00;99.90;;;;;;5115038;28;20293;-36
2022/05/02 07:13:07;;;;;;;;;;;18.00;99.90;;;;;;5115208;28;20254;-36
2022/05/02 07:15:40;;;;;;;;;;;18.00;99.90;;;;;;5115059;28;19907;-36
2022/05/02 07:18:07;;;;;;;;;;;18.00;99.90;;;;;;5114913;28;20002;-36
2022/05/02 07:20:53;;;;;;;;;;;18.00;99.90;;;;;;5115059;28;19916;-36
2022/05/02 07:23:34;;;;;;;;;;;18.00;99.90;;;;;;5114880;28;19915;-37
2022/05/02 07:26:05;;;;;;;;;;;18.00;99.90;;;;;;5114616;28;19912;-36
2022/05/02 07:28:44;;;;;;;;;;;17.90;99.90;;;;;;5114454;28;19923;-36
2022/05/02 07:31:11;;;;;;;;;;;18.00;99.90;;;;;;5114677;28;19908;-36
2022/05/02 07:33:37;;;;;;;;;;;17.90;99.90;;;;;;5115030;28;19923;-36
2022/05/02 07:36:03;;;;;;;;;;;17.90;99.90;;;;;;5114461;28;19987;-36
2022/05/02 07:38:31;;;;;;;;;;;17.90;99.90;;;;;;5114422;28;19970;-36
2022/05/02 07:43:42;;;;;;;;;;;17.90;99.90;;;;;;5114901;28;19930;-36
2022/05/02 07:46:09;;;;;;;;;;;17.90;99.90;;;;;;5114599;28;19912;-36
2022/05/02 07:48:36;;;;;;;;;;;17.90;99.90;;;;;;5114511;28;19919;-36
2022/05/02 07:51:02;;;;;;;;;;;17.90;99.90;;;;;;5114512;28;20267;-36
2022/05/02 07:53:28;;;;;;;;;;;17.90;99.90;;;;;;5096401;28;19908;-36
2022/05/02 07:55:54;;;;;;;;;;;17.90;99.90;;;;;;5114780;28;19908;-36
2022/05/02 07:58:23;;;;;;;;;;;17.90;99.90;;;;;;5114474;28;20001;-37
2022/05/02 08:00:49;;;;;;;;;;;17.90;99.90;;;;;;5114347;28;19907;-36
2022/05/02 08:03:14;;;;;;;;;;;17.90;99.90;;;;;;5114426;28;19915;-36
2022/05/02 08:05:44;;;;;;;;;;;17.90;99.90;;;;;;5114051;28;19955;-36
2022/05/02 08:08:18;;;;;;;;;;;17.90;99.90;;;;;;5114731;28;19965;-36
2022/05/02 08:10:55;;;;;;;;;;;17.90;99.90;;;;;;5114422;28;19934;-36
2022/05/02 08:13:39;;;;;;;;;;;17.90;99.90;;;;;;5113525;28;19915;-36
2022/05/02 08:16:09;;;;;;;;;;;17.90;99.90;;;;;;5114308;28;19985;-36
2022/05/02 08:18:38;;;;;;;;;;;17.90;99.90;;;;;;5095562;28;20266;-36
2022/05/02 08:21:07;;;;;;;;;;;17.90;99.90;;;;;;5114091;28;19908;-36
2022/05/02 08:27:15;;;;;;;;;;;17.90;99.90;;;;;;5113926;28;20373;-36
2022/05/02 08:29:42;;;;;;;;;;;17.90;99.90;;;;;;5113304;28;19937;-36
2022/05/02 08:32:12;;;;;;;;;;;17.90;99.90;;;;;;5113794;28;20421;-36
2022/05/02 08:34:40;;;;;;;;;;;17.90;99.90;;;;;;5113992;28;19947;-36
2022/05/02 08:37:06;;;;;;;;;;;17.90;99.90;;;;;;5113635;28;19915;-36
2022/05/02 08:39:36;;;;;;;;;;;17.90;99.90;;;;;;5114106;28;19907;-36
2022/05/02 08:42:26;;;;;;;;;;;17.90;99.90;;;;;;5113886;28;19908;-36
2022/05/02 08:45:14;;;;;;;;;;;17.90;99.90;;;;;;5113942;28;20376;-36
2022/05/02 08:47:45;;;;;;;;;;;17.90;99.90;;;;;;5113677;28;19956;-36
2022/05/02 08:50:29;;;;;;;;;;;17.90;99.90;;;;;;5114002;28;19915;-36
2022/05/02 08:53:04;;;;;;;;;;;18.00;99.90;;;;;;5114103;28;20349;-36
2022/05/02 08:55:52;;;;;;;;;;;17.90;99.90;;;;;;5113739;28;19915;-36
2022/05/02 08:58:37;;;;;;;;;;;17.90;99.90;;;;;;5107802;28;19919;-36
2022/05/02 09:01:21;;;;;;;;;;;17.90;99.90;;;;;;5114013;28;19907;-36
2022/05/02 09:03:49;;;;;;;;;;;17.90;99.90;;;;;;5113928;28;19919;-36
2022/05/02 09:06:21;;;;;;;;;;;17.90;99.90;;;;;;5113385;28;19943;-36
2022/05/02 09:09:10;;;;;;;;;;;17.90;99.90;;;;;;5113311;28;20321;-36
2022/05/02 09:11:45;;;;;;;;;;;17.90;99.90;;;;;;5113659;28;19922;-36
2022/05/02 09:14:19;;;;;;;;;;;17.90;99.90;;;;;;5113706;28;19908;-36
2022/05/02 09:16:44;;;;;;;;;;;17.90;99.90;;;;;;5113618;28;19961;-36
2022/05/02 09:19:19;;;;;;;;;;;17.90;99.90;;;;;;5095391;28;19983;-36
2022/05/02 09:22:03;;;;;;;;;;;17.90;99.90;;;;;;5113363;28;20277;-36
2022/05/02 09:24:43;;;;;;;;;;;17.90;99.90;;;;;;5115673;28;20010;-36
2022/05/02 09:27:21;;;;;;;;;;;17.90;99.90;;;;;;5117242;28;20275;-36
2022/05/02 09:29:52;;;;;;;;;;;17.90;99.90;;;;;;5117242;28;19976;-36
2022/05/02 09:32:28;;;;;;;;;;;17.90;99.90;;;;;;5116847;28;19924;-36
2022/05/02 09:34:57;;;;;;;;;;;17.90;99.90;;;;;;5116824;28;19914;-37
2022/05/02 09:37:25;;;;;;;;;;;17.90;99.90;;;;;;5116757;28;20389;-36
2022/05/02 09:40:07;;;;;;;;;;;17.90;99.90;;;;;;5116922;28;19908;-37
2022/05/02 09:42:39;;;;;;;;;;;18.00;99.90;;;;;;5116847;28;19908;-36
2022/05/02 09:50:37;;;;;;;;;;;18.30;99.90;;;;;;5116612;28;20401;-36
2022/05/02 09:53:09;;;;;;;;;;;18.60;99.90;;;;;;5116417;28;19915;-37
2022/05/02 09:58:36;;;;;;;;;;;19.30;99.90;;;;;;5116290;28;19915;-36
2022/05/02 10:01:13;;;;;;;;;;;19.60;99.90;;;;;;5116861;28;19908;-36
2022/05/02 10:03:40;;;;;;;;;;;19.80;99.90;;;;;;5116276;28;20026;-37
2022/05/02 10:06:08;;;;;;;;;;;20.00;99.90;;;;;;5097876;28;19912;-37
2022/05/02 10:08:33;;;;;;;;;;;20.00;99.90;;;;;;5116084;28;19911;-36
2022/05/02 10:10:59;;;;;;;;;;;20.00;99.90;;;;;;5116569;28;20243;-37
2022/05/02 10:13:40;;;;;;;;;;;19.90;99.90;;;;;;5116158;28;19911;-37
2022/05/02 10:16:24;;;;;;;;;;;19.80;99.90;;;;;;5115841;28;19914;-37
2022/05/02 10:19:03;;;;;;;;;;;19.80;99.90;;;;;;5116182;28;19914;-37
2022/05/02 10:21:47;;;;;;;;;;;19.70;99.90;;;;;;5115830;28;19908;-36
2022/05/02 10:24:12;;;;;;;;;;;19.70;99.90;;;;;;5115563;28;20289;-36
2022/05/02 10:26:38;;;;;;;;;;;19.60;99.90;;;;;;5115896;28;19912;-36
2022/05/02 10:29:22;;;;;;;;;;;19.60;99.90;;;;;;5115923;28;19908;-37
2022/05/02 10:31:50;;;;;;;;;;;19.50;99.90;;;;;;5115860;28;20296;-36
2022/05/02 10:34:17;;;;;;;;;;;19.40;99.90;;;;;;5115671;28;19914;-37
2022/05/02 10:36:45;;;;;;;;;;;19.40;99.90;;;;;;5114729;28;19907;-36
2022/05/02 10:39:38;;;;;;;;;;;19.30;99.90;;;;;;5115465;28;19990;-37
2022/05/02 10:42:04;;;;;;;;;;;19.30;99.90;;;;;;5115489;28;19912;-37
2022/05/02 10:44:39;;;;;;;;;;;19.20;99.90;;;;;;5115187;28;19912;-36
2022/05/02 10:47:07;;;;;;;;;;;19.10;99.90;;;;;;5114942;28;19912;-36
2022/05/02 10:49:48;;;;;;;;;;;19.20;99.90;;;;;;5115243;28;19915;-36
2022/05/02 10:52:19;;;;;;;;;;;19.10;99.90;;;;;;5115164;28;19969;-36
2022/05/02 10:54:49;;;;;;;;;;;19.10;99.90;;;;;;5115591;28;19908;-36
2022/05/02 10:57:34;;;;;;;;;;;19.10;99.90;;;;;;5115101;28;19966;-37
2022/05/02 11:00:04;;;;;;;;;;;19.10;99.90;;;;;;5115432;28;19908;-37
2022/05/02 11:02:49;;;;;;;;;;;19.20;99.90;;;;;;5115098;28;19915;-37
2022/05/02 11:05:15;;;;;;;;;;;19.40;99.90;;;;;;5114853;28;20002;-36
2022/05/02 11:08:00;;;;;;;;;;;19.50;99.90;;;;;;5114794;28;19920;-37
2022/05/02 11:10:29;;;;;;;;;;;19.50;99.90;;;;;;5115063;28;19947;-37
2022/05/02 11:13:09;;;;;;;;;;;19.50;99.90;;;;;;5115385;28;19908;-36
2022/05/02 11:15:55;;;;;;;;;;;19.60;99.90;;;;;;5114856;28;19907;-36
2022/05/02 11:21:26;;;;;;;;;;;19.50;99.90;;;;;;5114678;28;19915;-36
2022/05/02 11:24:06;;;;;;;;;;;19.40;99.90;;;;;;5114819;28;19924;-36
2022/05/02 11:26:55;;;;;;;;;;;19.40;99.90;;;;;;5114379;28;19924;-36
2022/05/02 11:29:20;;;;;;;;;;;19.40;99.90;;;;;;5114123;28;19943;-37
2022/05/02 11:31:55;;;;;;;;;;;19.30;99.90;;;;;;5114131;28;19920;-37
2022/05/02 11:34:39;;;;;;;;;;;19.30;99.90;;;;;;5114725;28;19914;-37
2022/05/02 11:37:08;;;;;;;;;;;19.30;99.90;;;;;;5114212;28;19908;-36
2022/05/02 11:39:48;;;;;;;;;;;19.20;99.90;;;;;;5114108;28;20389;-36
2022/05/02 11:42:15;;;;;;;;;;;19.10;99.90;;;;;;5114567;28;19908;-36
2022/05/02 11:44:51;;;;;;;;;;;19.20;99.90;;;;;;5114375;28;19915;-36
2022/05/02 11:47:25;;;;;;;;;;;19.20;99.90;;;;;;5113919;28;19920;-36
2022/05/02 11:49:50;;;;;;;;;;;19.10;99.90;;;;;;5114678;28;20239;-36
2022/05/02 11:52:23;;;;;;;;;;;19.20;99.90;;;;;;5114128;28;19965;-36
2022/05/02 11:54:54;;;;;;;;;;;19.10;99.90;;;;;;5096391;28;20377;-36
2022/05/02 11:57:22;;;;;;;;;;;19.10;99.90;;;;;;5114559;28;19908;-37
2022/05/02 12:00:00;;;;;;;;;;;19.10;99.90;;;;;;5114507;28;19930;-36
2022/05/02 12:02:28;;;;;;;;;;;19.10;99.90;;;;;;5114512;28;19912;-37
2022/05/02 12:04:56;;;;;;;;;;;19.10;99.90;;;;;;5114520;28;19916;-37
2022/05/02 12:07:26;;;;;;;;;;;19.20;99.90;;;;;;5114315;28;19912;-36
2022/05/02 12:09:59;;;;;;;;;;;19.40;99.90;;;;;;5114491;28;19915;-36
2022/05/02 12:12:24;;;;;;;;;;;19.60;99.90;;;;;;5114149;28;19908;-37
2022/05/02 12:14:59;;;;;;;;;;;19.60;99.90;;;;;;5113919;28;19914;-36
2022/05/02 12:17:24;;;;;;;;;;;19.70;99.90;;;;;;5114286;28;20016;-37
2022/05/02 12:19:50;;;;;;;;;;;19.60;99.90;;;;;;5113808;28;20283;-36
2022/05/02 12:22:16;;;;;;;;;;;19.60;99.90;;;;;;5114511;28;20439;-36
2022/05/02 12:24:43;;;;;;;;;;;19.60;99.90;;;;;;5113658;28;19984;-37
2022/05/02 12:27:09;;;;;;;;;;;19.60;99.90;;;;;;5113598;28;19912;-37
2022/05/02 12:29:36;;;;;;;;;;;19.50;99.90;;;;;;5113858;28;20335;-37
2022/05/02 12:32:03;;;;;;;;;;;19.40;99.90;;;;;;5113985;28;19966;-37
2022/05/02 12:34:36;;;;;;;;;;;19.40;99.90;;;;;;5113777;28;19908;-37
2022/05/02 12:37:25;;;;;;;;;;;19.40;99.90;;;;;;5113932;28;19908;-37
2022/05/02 12:39:56;;;;;;;;;;;19.40;99.90;;;;;;5107122;28;19908;-36
2022/05/02 12:42:24;;;;;;;;;;;19.40;99.90;;;;;;5114014;28;19924;-36
2022/05/02 12:44:49;;;;;;;;;;;19.30;99.90;;;;;;5113492;28;19912;-36
2022/05/02 12:47:21;;;;;;;;;;;19.30;99.90;;;;;;5113539;28;19918;-36
2022/05/02 12:50:27;;;;;;;;;;;19.30;99.90;;;;;;5113762;28;20354;-36
2022/05/02 12:52:55;;;;;;;;;;;19.30;99.90;;;;;;5070928;28;19913;-36
2022/05/02 12:55:21;;;;;;;;;;;19.30;99.90;;;;;;5070799;28;19908;-36
2022/05/02 13:00:43;;;;;;;;;;;19.30;99.90;;;;;;5117909;28;19914;-36
2022/05/02 13:03:17;;;;;;;;;;;19.30;99.90;;;;;;5117752;28;20296;-36
2022/05/02 13:05:45;;;;;;;;;;;19.40;99.90;;;;;;5117451;28;19919;-36
2022/05/02 13:08:17;;;;;;;;;;;19.30;99.90;;;;;;5116990;28;19912;-36
2022/05/02 13:10:43;;;;;;;;;;;19.30;99.90;;;;;;5116985;28;19907;-36
2022/05/02 13:13:13;;;;;;;;;;;19.30;99.90;;;;;;5116911;28;19954;-37
2022/05/02 13:15:41;;;;;;;;;;;19.30;99.90;;;;;;5099032;28;19915;-37
2022/05/02 13:18:07;;;;;;;;;;;19.30;99.90;;;;;;5116990;28;19948;-37
2022/05/02 13:20:33;;;;;;;;;;;19.30;99.90;;;;;;5117058;28;19908;-37
2022/05/02 13:23:07;;;;;;;;;;;19.20;99.90;;;;;;5116783;28;19973;-37
2022/05/02 13:25:51;;;;;;;;;;;19.30;99.90;;;;;;5117035;28;19919;-36
2022/05/02 13:28:31;;;;;;;;;;;19.40;99.90;;;;;;5117271;28;19977;-36
2022/05/02 13:31:23;;;;;;;;;;;19.40;99.90;;;;;;5117459;28;19918;-37
2022/05/02 13:33:51;;;;;;;;;;;19.40;99.90;;;;;;5100045;28;19926;-36
2022/05/02 13:36:17;;;;;;;;;;;19.30;99.90;;;;;;5116831;28;19915;-37
2022/05/02 13:38:45;;;;;;;;;;;19.20;99.90;;;;;;5116629;28;20278;-36
2022/05/02 13:41:11;;;;;;;;;;;19.10;99.90;;;;;;5117118;28;19908;-37
2022/05/02 13:43:56;;;;;;;;;;;19.10;99.90;;;;;;5116571;28;19912;-36
2022/05/02 13:46:31;;;;;;;;;;;19.20;99.90;;;;;;5116839;28;20339;-36
2022/05/02 13:49:30;;;;;;;;;;;19.30;99.90;;;;;;5116768;28;19916;-37
2022/05/02 13:52:01;;;;;;;;;;;19.30;99.90;;;;;;5093252;28;19937;-36
2022/05/02 13:54:28;;;;;;;;;;;19.40;99.90;;;;;;5116203;28;19912;-37
2022/05/02 13:57:04;;;;;;;;;;;19.50;99.90;;;;;;5116866;28;20003;-36
2022/05/02 13:59:35;;;;;;;;;;;19.50;99.90;;;;;;5116660;28;19908;-37
2022/05/02 14:02:18;;;;;;;;;;;19.50;99.90;;;;;;5116337;28;19908;-36
2022/05/02 14:04:52;;;;;;;;;;;19.60;99.90;;;;;;5098245;28;19912;-36
2022/05/02 14:07:18;;;;;;;;;;;19.60;99.90;;;;;;5116003;28;19920;-36
2022/05/02 14:09:47;;;;;;;;;;;19.40;99.90;;;;;;5115237;28;19960;-36
2022/05/02 14:12:21;;;;;;;;;;;19.40;99.90;;;;;;5115606;28;19908;-37
2022/05/02 14:14:57;;;;;;;;;;;19.40;99.90;;;;;;5115769;28;20431;-36
2022/05/02 14:17:39;;;;;;;;;;;19.40;99.90;;;;;;5116344;28;19908;-37
2022/05/02 14:20:23;;;;;;;;;;;19.40;99.90;;;;;;5116067;28;20002;-37
2022/05/02 14:23:03;;;;;;;;;;;19.30;99.90;;;;;;5115971;28;19998;-36
2022/05/02 14:25:34;;;;;;;;;;;19.30;99.90;;;;;;5115802;28;19912;-36
2022/05/02 14:28:05;;;;;;;;;;;19.30;99.90;;;;;;5097469;28;19934;-37
2022/05/02 14:30:35;;;;;;;;;;;19.40;99.90;;;;;;5115654;28;19915;-37
2022/05/02 14:33:01;;;;;;;;;;;19.40;99.90;;;;;;5115937;28;19920;-37
2022/05/02 14:35:28;;;;;;;;;;;19.30;99.90;;;;;;5115209;28;19912;-37
2022/05/02 14:37:55;;;;;;;;;;;19.30;99.90;;;;;;5115814;28;19977;-36
2022/05/02 14:40:21;;;;;;;;;;;19.30;99.90;;;;;;5115411;28;19960;-36
2022/05/02 14:42:48;;;;;;;;;;;19.30;99.90;;;;;;5115647;28;19915;-36
2022/05/02 14:45:14;;;;;;;;;;;19.30;99.90;;;;;;5097306;28;19912;-37
2022/05/02 14:47:41;;;;;;;;;;;19.30;99.90;;;;;;5115202;28;20354;-37
2022/05/02 14:50:08;;;;;;;;;;;19.30;99.90;;;;;;5115422;28;19947;-36
2022/05/02 14:52:35;;;;;;;;;;;19.40;99.90;;;;;;5115449;28;20330;-37
2022/05/02 14:55:02;;;;;;;;;;;19.60;99.90;;;;;;5115747;28;20258;-37
2022/05/02 14:57:29;;;;;;;;;;;19.60;99.90;;;;;;5115508;28;20323;-38
2022/05/02 14:59:56;;;;;;;;;;;19.60;99.90;;;;;;5115204;28;19931;-36
2022/05/02 15:02:24;;;;;;;;;;;19.70;99.90;;;;;;5114957;28;20388;-37
2022/05/02 15:04:51;;;;;;;;;;;19.70;99.90;;;;;;5096894;28;19911;-37
2022/05/02 15:07:19;;;;;;;;;;;19.60;99.90;;;;;;5114756;28;19915;-36
2022/05/02 15:13:11;;;;;;;;;;;19.60;99.90;;;;;;5096670;28;19912;-36
2022/05/02 15:15:37;;;;;;;;;;;19.60;99.90;;;;;;5094538;28;20374;-36